createdAt,value
2019-05-09T00:01:35.447Z,99.90
2019-05-09T00:04:05.405Z,99.90
2019-05-09T00:06:35.023Z,99.90
2019-05-09T00:09:06.492Z,99.90
2019-05-09T00:11:35.783Z,99.90
2019-05-09T00:14:05.076Z,99.90
2019-05-09T00:16:34.441Z,99.90
2019-05-09T00:19:03.747Z,99.90
2019-05-09T00:21:37.074Z,99.90
2019-05-09T00:24:06.448Z,99.90
2019-05-09T00:26:35.743Z,99.90
2019-05-09T00:29:09.672Z,99.90
2019-05-09T00:31:57.194Z,99.90
2019-05-09T00:34:44.940Z,99.90
2019-05-09T00:37:14.272Z,99.90
2019-05-09T00:39:43.563Z,99.90
2019-05-09T00:42:13.815Z,99.90
2019-05-09T00:44:44.840Z,99.90
2019-05-09T00:47:21.224Z,99.90
2019-05-09T00:49:50.565Z,99.90
2019-05-09T00:52:19.926Z,99.90
2019-05-09T00:54:49.240Z,99.90
2019-05-09T00:57:33.629Z,99.90
2019-05-09T01:00:16.451Z,99.90
2019-05-09T01:02:45.785Z,99.90
2019-05-09T01:05:15.152Z,99.90
2019-05-09T01:07:44.467Z,99.90
2019-05-09T01:10:15.396Z,99.90
2019-05-09T01:12:44.702Z,99.90
2019-05-09T01:15:29.254Z,99.90
2019-05-09T01:17:58.574Z,99.90
2019-05-09T01:20:27.945Z,99.90
2019-05-09T01:23:57.955Z,99.90
2019-05-09T01:26:27.244Z,99.90
2019-05-09T01:28:56.529Z,99.90
2019-05-09T01:31:25.863Z,99.90
2019-05-09T01:33:56.783Z,99.90
2019-05-09T01:36:27.737Z,99.90
2019-05-09T01:38:57.098Z,99.90
2019-05-09T01:41:30.826Z,99.90
2019-05-09T01:43:57.393Z,99.90
2019-05-09T01:46:26.730Z,99.90
2019-05-09T01:48:56.009Z,99.90
2019-05-09T01:51:25.608Z,99.90
2019-05-09T01:53:55.107Z,99.90
2019-05-09T01:56:24.389Z,99.90
2019-05-09T01:58:54.052Z,99.90
2019-05-09T02:01:24.234Z,99.90
2019-05-09T02:03:54.114Z,99.90
2019-05-09T02:06:24.328Z,99.90
2019-05-09T02:08:54.706Z,99.90
2019-05-09T02:11:38.449Z,99.90
2019-05-09T02:13:55.121Z,99.90
2019-05-09T02:16:26.088Z,99.90
2019-05-09T02:18:57.013Z,99.90
2019-05-09T02:21:26.294Z,99.90
2019-05-09T02:23:55.719Z,99.90
2019-05-09T02:26:24.989Z,99.90
2019-05-09T02:28:54.307Z,99.90
2019-05-09T02:31:24.690Z,99.90
2019-05-09T02:33:54.471Z,99.90
2019-05-09T02:36:23.914Z,99.90
2019-05-09T02:38:53.297Z,99.90
2019-05-09T02:41:22.587Z,99.90
2019-05-09T02:43:51.877Z,99.90
2019-05-09T02:46:22.854Z,99.90
2019-05-09T02:48:52.131Z,99.90
2019-05-09T02:51:21.444Z,99.90
2019-05-09T02:53:50.930Z,99.90
2019-05-09T02:56:20.241Z,99.90
2019-05-09T02:58:53.873Z,99.90
2019-05-09T03:01:34.031Z,99.90
2019-05-09T03:04:03.393Z,99.90
2019-05-09T03:06:32.700Z,99.90
2019-05-09T03:09:02.051Z,99.90
2019-05-09T03:11:31.369Z,99.90
2019-05-09T03:14:00.733Z,99.90
2019-05-09T03:16:30.052Z,99.90
2019-05-09T03:19:00.312Z,99.90
2019-05-09T03:21:33.931Z,99.90
2019-05-09T03:24:03.352Z,99.90
2019-05-09T03:26:38.593Z,99.90
2019-05-09T03:29:29.191Z,99.90
2019-05-09T03:32:00.260Z,99.90
2019-05-09T03:34:30.336Z,99.90
2019-05-09T03:36:59.904Z,99.90
2019-05-09T03:39:29.187Z,99.90
2019-05-09T03:41:58.469Z,99.90
2019-05-09T03:44:28.377Z,99.90
2019-05-09T03:46:59.317Z,99.90
2019-05-09T03:49:28.594Z,99.90
2019-05-09T03:51:58.609Z,99.90
2019-05-09T03:54:28.419Z,99.90
2019-05-09T03:57:07.629Z,99.90
2019-05-09T03:59:38.109Z,99.90
2019-05-09T04:02:09.915Z,99.90
2019-05-09T04:04:38.560Z,99.90
2019-05-09T04:07:08.531Z,99.90
2019-05-09T04:09:39.732Z,99.90
2019-05-09T04:12:09.208Z,99.90
2019-05-09T04:14:38.862Z,99.90
2019-05-09T04:17:09.781Z,99.90
2019-05-09T04:19:40.477Z,99.90
2019-05-09T04:22:10.414Z,99.90
2019-05-09T04:24:39.738Z,99.90
2019-05-09T04:27:10.709Z,99.90
2019-05-09T04:29:39.995Z,99.90
2019-05-09T04:32:09.278Z,99.90
2019-05-09T04:34:38.612Z,99.90
2019-05-09T04:37:09.135Z,99.90
2019-05-09T04:39:40.659Z,99.90
2019-05-09T04:42:10.467Z,99.90
2019-05-09T04:44:41.429Z,99.90
2019-05-09T04:47:10.709Z,99.90
2019-05-09T04:49:45.025Z,99.90
2019-05-09T04:52:11.056Z,99.90
2019-05-09T04:54:40.348Z,99.90
2019-05-09T04:57:09.692Z,99.90
2019-05-09T04:59:38.963Z,99.90
2019-05-09T05:02:18.642Z,99.90
2019-05-09T05:05:40.197Z,99.90
2019-05-09T05:08:09.677Z,99.90
2019-05-09T05:10:38.988Z,99.90
2019-05-09T05:13:22.165Z,99.90
2019-05-09T05:15:39.400Z,99.90
2019-05-09T05:18:08.695Z,99.90
2019-05-09T05:20:38.077Z,99.90
2019-05-09T05:23:09.021Z,99.90
2019-05-09T05:25:38.589Z,99.90
2019-05-09T05:28:08.650Z,99.90
2019-05-09T05:30:39.129Z,99.90
2019-05-09T05:33:10.072Z,99.90
2019-05-09T05:35:47.991Z,99.90
2019-05-09T05:38:17.762Z,99.90
2019-05-09T05:40:49.717Z,99.90
2019-05-09T05:43:18.326Z,99.90
2019-05-09T05:45:49.824Z,99.90
2019-05-09T05:48:20.798Z,99.90
2019-05-09T05:50:50.140Z,99.90
2019-05-09T05:53:19.702Z,99.90
2019-05-09T05:55:52.547Z,99.90
2019-05-09T05:58:20.123Z,99.90
2019-05-09T06:00:49.475Z,99.90
2019-05-09T06:03:18.796Z,99.90
2019-05-09T06:05:51.466Z,99.90
2019-05-09T06:08:19.145Z,99.90
2019-05-09T06:10:48.463Z,99.90
2019-05-09T06:13:18.331Z,99.90
2019-05-09T06:15:48.228Z,99.90
2019-05-09T06:18:18.398Z,99.90
2019-05-09T06:20:48.662Z,99.90
2019-05-09T06:23:18.514Z,99.90
2019-05-09T06:25:48.567Z,99.90
2019-05-09T06:28:20.647Z,99.90
2019-05-09T06:30:50.056Z,99.90
2019-05-09T06:33:19.350Z,99.90
2019-05-09T06:35:48.635Z,99.90
2019-05-09T06:38:18.716Z,99.90
2019-05-09T06:40:48.471Z,99.90
2019-05-09T06:43:19.773Z,99.90
2019-05-09T06:46:02.678Z,99.90
2019-05-09T06:48:32.138Z,99.90
2019-05-09T06:51:01.438Z,99.90
2019-05-09T06:53:30.786Z,99.90
2019-05-09T06:56:00.132Z,99.90
2019-05-09T06:58:40.079Z,99.90
2019-05-09T07:01:19.828Z,99.90
2019-05-09T07:03:52.863Z,99.90
2019-05-09T07:06:23.515Z,99.90
2019-05-09T07:08:58.486Z,99.90
2019-05-09T07:11:27.999Z,99.90
2019-05-09T07:13:57.948Z,99.90
2019-05-09T07:16:27.723Z,99.90
2019-05-09T07:18:57.923Z,99.90
2019-05-09T07:21:28.972Z,99.90
2019-05-09T07:23:58.438Z,99.90
2019-05-09T07:26:29.331Z,99.90
2019-05-09T07:28:59.521Z,99.90
2019-05-09T07:31:48.876Z,99.90
2019-05-09T07:34:20.066Z,99.90
2019-05-09T07:36:49.402Z,99.90
2019-05-09T07:39:18.758Z,99.90
2019-05-09T07:41:48.308Z,99.90
2019-05-09T07:44:18.339Z,99.90
2019-05-09T07:46:52.072Z,99.90
2019-05-09T07:49:21.361Z,99.90
2019-05-09T07:51:50.688Z,99.90
2019-05-09T07:54:25.029Z,99.90
2019-05-09T07:56:51.094Z,99.90
2019-05-09T07:59:20.675Z,99.90
2019-05-09T08:01:50.068Z,99.90
2019-05-09T08:04:19.367Z,99.90
2019-05-09T08:06:48.803Z,99.90
2019-05-09T08:09:18.748Z,99.90
2019-05-09T08:11:48.609Z,99.90
2019-05-09T08:14:17.906Z,99.90
2019-05-09T08:16:47.616Z,99.90
2019-05-09T08:19:18.090Z,99.90
2019-05-09T08:21:48.062Z,99.90
2019-05-09T08:24:18.327Z,99.90
2019-05-09T08:26:47.974Z,99.90
2019-05-09T08:29:19.840Z,99.90
2019-05-09T08:31:48.716Z,99.90
2019-05-09T08:34:20.800Z,99.90
2019-05-09T08:36:50.120Z,99.90
2019-05-09T08:39:20.507Z,99.90
2019-05-09T08:41:50.359Z,99.90
2019-05-09T08:44:19.650Z,99.90
2019-05-09T08:46:49.277Z,99.90
2019-05-09T08:49:20.304Z,99.90
2019-05-09T08:52:07.816Z,99.90
2019-05-09T08:54:42.181Z,99.90
2019-05-09T08:57:11.530Z,99.90
2019-05-09T08:59:41.380Z,99.90
2019-05-09T09:02:15.427Z,99.90
2019-05-09T09:04:42.155Z,99.90
2019-05-09T09:07:11.451Z,99.90
2019-05-09T09:09:40.750Z,99.90
2019-05-09T09:12:26.069Z,99.90
2019-05-09T09:14:41.472Z,99.90
2019-05-09T09:17:11.063Z,99.90
2019-05-09T09:19:40.413Z,99.90
2019-05-09T09:22:09.711Z,99.90
2019-05-09T09:24:39.033Z,99.90
2019-05-09T09:27:08.614Z,99.90
2019-05-09T09:29:38.299Z,99.90
2019-05-09T09:32:08.500Z,99.90
2019-05-09T09:34:38.199Z,99.90
2019-05-09T09:37:11.542Z,99.90
2019-05-09T09:39:44.375Z,99.90
2019-05-09T09:42:11.324Z,99.90
2019-05-09T09:44:40.960Z,99.90
2019-05-09T09:47:10.299Z,99.90
2019-05-09T09:49:39.675Z,99.90
2019-05-09T09:52:09.251Z,99.90
2019-05-09T09:54:38.879Z,99.90
2019-05-09T09:57:09.867Z,99.90
2019-05-09T09:59:41.164Z,99.90
2019-05-09T10:02:15.172Z,99.90
2019-05-09T10:04:44.467Z,99.90
2019-05-09T10:07:13.828Z,99.90
2019-05-09T10:09:43.470Z,99.90
2019-05-09T10:12:18.039Z,99.90
2019-05-09T10:15:00.558Z,99.90
2019-05-09T10:17:34.738Z,99.90
2019-05-09T10:20:18.146Z,99.90
2019-05-09T10:22:58.324Z,99.90
2019-05-09T10:25:19.148Z,99.90
2019-05-09T10:27:49.642Z,99.90
2019-05-09T10:30:32.344Z,99.90
2019-05-09T10:33:01.712Z,99.90
2019-05-09T10:35:31.077Z,99.90
2019-05-09T10:38:00.400Z,99.90
2019-05-09T10:40:29.744Z,99.90
2019-05-09T10:43:33.158Z,99.90
2019-05-09T10:46:05.148Z,99.90
2019-05-09T10:48:34.545Z,99.90
2019-05-09T10:51:06.060Z,99.90
2019-05-09T10:53:34.908Z,99.90
2019-05-09T10:56:04.266Z,99.90
2019-05-09T10:58:33.565Z,99.90
2019-05-09T11:01:02.871Z,99.90
2019-05-09T11:03:32.461Z,99.90
2019-05-09T11:06:01.787Z,99.90
2019-05-09T11:08:31.122Z,99.90
2019-05-09T11:11:00.512Z,99.90
2019-05-09T11:13:29.836Z,99.90
2019-05-09T11:15:59.188Z,99.90
2019-05-09T11:18:28.744Z,99.90
2019-05-09T11:20:58.284Z,99.90
2019-05-09T11:23:29.229Z,99.90
2019-05-09T11:25:58.758Z,99.90
2019-05-09T11:28:28.636Z,99.90
2019-05-09T11:30:58.494Z,99.90
2019-05-09T11:33:28.174Z,99.90
2019-05-09T11:35:58.072Z,99.90
2019-05-09T11:38:35.514Z,99.90
2019-05-09T11:40:59.550Z,99.90
2019-05-09T11:43:29.911Z,99.90
2019-05-09T11:45:59.565Z,99.90
2019-05-09T11:48:29.128Z,99.90
2019-05-09T11:50:59.085Z,99.90
2019-05-09T11:53:28.942Z,99.90
2019-05-09T11:55:58.565Z,99.90
2019-05-09T11:58:28.236Z,99.90
2019-05-09T12:00:57.668Z,99.90
2019-05-09T12:03:26.990Z,99.90
2019-05-09T12:05:58.334Z,99.90
2019-05-09T12:08:27.370Z,99.90
2019-05-09T12:10:57.903Z,99.90
2019-05-09T12:13:27.717Z,99.90
2019-05-09T12:15:58.455Z,99.90
2019-05-09T12:18:28.573Z,99.90
2019-05-09T12:20:58.048Z,99.90
2019-05-09T12:23:29.174Z,99.90
2019-05-09T12:25:58.402Z,99.90
2019-05-09T12:28:27.780Z,99.90
2019-05-09T12:30:57.071Z,99.90
2019-05-09T12:33:28.373Z,99.90
2019-05-09T12:35:59.496Z,99.90
2019-05-09T12:38:28.963Z,99.90
2019-05-09T12:41:00.553Z,99.90
2019-05-09T12:43:29.399Z,99.90
2019-05-09T12:46:01.412Z,99.90
2019-05-09T12:48:30.686Z,99.90
2019-05-09T12:51:00.055Z,99.90
2019-05-09T12:53:29.337Z,99.90
2019-05-09T12:56:01.676Z,99.90
2019-05-09T12:58:31.565Z,99.90
2019-05-09T13:01:01.317Z,99.90
2019-05-09T13:03:30.758Z,99.90
2019-05-09T13:06:00.077Z,99.90
2019-05-09T13:08:29.414Z,99.90
2019-05-09T13:11:01.941Z,99.90
2019-05-09T13:13:32.214Z,99.90
2019-05-09T13:16:02.613Z,99.90
2019-05-09T13:18:33.511Z,99.90
2019-05-09T13:21:02.845Z,99.90
2019-05-09T13:23:32.217Z,99.90
2019-05-09T13:26:01.570Z,99.90
2019-05-09T13:28:30.852Z,99.90
2019-05-09T13:31:00.277Z,99.90
2019-05-09T13:33:29.579Z,99.90
2019-05-09T13:35:59.188Z,99.90
2019-05-09T13:38:28.565Z,99.90
2019-05-09T13:40:58.471Z,99.90
2019-05-09T13:44:13.283Z,99.90
2019-05-09T13:46:39.013Z,99.90
2019-05-09T13:50:12.277Z,99.90
2019-05-09T13:52:41.596Z,99.90
2019-05-09T13:55:10.956Z,99.90
2019-05-09T13:57:40.301Z,99.90
2019-05-09T14:00:10.828Z,99.90
2019-05-09T14:02:40.405Z,99.90
2019-05-09T14:05:09.951Z,99.90
2019-05-09T14:07:39.259Z,99.90
2019-05-09T14:10:10.432Z,99.90
2019-05-09T14:12:39.923Z,99.90
2019-05-09T14:15:09.356Z,99.90
2019-05-09T14:17:49.299Z,99.90
2019-05-09T14:20:09.834Z,99.90
2019-05-09T14:22:39.468Z,99.90
2019-05-09T14:25:11.447Z,99.90
2019-05-09T14:27:39.896Z,99.90
2019-05-09T14:30:10.318Z,99.90
2019-05-09T14:32:40.319Z,99.90
2019-05-09T14:35:12.874Z,99.90
2019-05-09T14:37:42.206Z,99.30
2019-05-09T14:40:11.630Z,99.40
2019-05-09T14:42:40.947Z,98.60
2019-05-09T14:45:10.360Z,99.90
2019-05-09T14:47:42.451Z,99.90
2019-05-09T14:50:11.387Z,99.90
2019-05-09T14:52:40.703Z,99.60
2019-05-09T14:55:10.260Z,98.00
2019-05-09T14:57:39.598Z,95.90
2019-05-09T15:00:09.638Z,94.40
2019-05-09T15:02:39.143Z,92.80
2019-05-09T15:05:09.703Z,91.40
2019-05-09T15:07:39.303Z,89.10
2019-05-09T15:10:09.387Z,81.80
2019-05-09T15:12:39.202Z,81.00
2019-05-09T15:15:10.008Z,79.90
2019-05-09T15:17:39.463Z,83.70
2019-05-09T15:20:09.624Z,83.50
2019-05-09T15:22:39.014Z,79.40
2019-05-09T15:25:10.563Z,79.70
2019-05-09T15:27:39.851Z,80.90
2019-05-09T15:30:10.248Z,81.10
2019-05-09T15:32:39.625Z,83.40
2019-05-09T15:35:09.328Z,84.50
2019-05-09T15:37:38.964Z,85.80
2019-05-09T15:40:09.275Z,85.50
2019-05-09T15:42:39.254Z,88.00
2019-05-09T15:45:12.400Z,88.30
2019-05-09T15:47:42.090Z,87.50
2019-05-09T15:50:21.941Z,87.80
2019-05-09T15:52:43.007Z,89.70
2019-05-09T15:55:13.105Z,90.80
2019-05-09T15:57:42.432Z,92.90
2019-05-09T16:00:14.305Z,94.70
2019-05-09T16:02:43.743Z,94.40
2019-05-09T16:05:13.253Z,94.90
2019-05-09T16:07:42.551Z,94.90
2019-05-09T16:10:12.290Z,96.10
2019-05-09T16:12:41.574Z,97.70
2019-05-09T16:15:11.085Z,98.20
2019-05-09T16:17:40.441Z,99.70
2019-05-09T16:20:10.211Z,99.90
2019-05-09T16:22:39.532Z,99.90
2019-05-09T16:25:09.812Z,99.90
2019-05-09T16:27:39.112Z,99.90
2019-05-09T16:30:10.054Z,99.90
2019-05-09T16:32:39.352Z,99.90
2019-05-09T16:39:09.118Z,99.90
2019-05-09T16:41:39.157Z,99.90
2019-05-09T16:44:42.482Z,99.90
2019-05-09T16:47:11.775Z,99.90
2019-05-09T16:49:41.072Z,99.90
2019-05-09T16:52:10.419Z,99.90
2019-05-09T16:54:41.353Z,99.90
2019-05-09T16:57:10.649Z,99.90
2019-05-09T16:59:40.059Z,99.90
2019-05-09T17:02:18.881Z,99.90
2019-05-09T17:04:40.441Z,99.90
2019-05-09T17:07:09.787Z,99.90
2019-05-09T17:09:43.711Z,99.90
2019-05-09T17:12:13.000Z,99.90
2019-05-09T17:14:42.571Z,99.90
2019-05-09T17:17:27.831Z,99.90
2019-05-09T17:19:57.385Z,99.90
2019-05-09T17:22:44.605Z,99.90
2019-05-09T17:25:13.936Z,99.90
2019-05-09T17:28:53.036Z,99.90
2019-05-09T17:31:22.384Z,99.90
2019-05-09T17:34:49.148Z,99.90
2019-05-09T17:37:18.537Z,99.90
2019-05-09T17:39:47.857Z,99.90
2019-05-09T17:42:18.276Z,99.90
2019-05-09T17:44:48.752Z,99.90
2019-05-09T17:47:21.087Z,99.90
2019-05-09T17:49:50.377Z,99.90
2019-05-09T17:52:19.729Z,99.90
2019-05-09T17:54:49.024Z,99.90
2019-05-09T17:57:18.933Z,99.90
2019-05-09T17:59:49.036Z,99.90
2019-05-09T18:02:18.508Z,99.90
2019-05-09T18:04:48.209Z,99.90
2019-05-09T18:07:29.468Z,99.90
2019-05-09T18:09:58.777Z,99.90
2019-05-09T18:12:48.083Z,99.90
2019-05-09T18:15:19.362Z,99.90
2019-05-09T18:17:48.638Z,99.90
2019-05-09T18:20:18.189Z,99.90
2019-05-09T18:22:47.895Z,99.90
2019-05-09T18:25:18.712Z,99.90
2019-05-09T18:27:48.966Z,99.90
2019-05-09T18:34:18.599Z,99.90
2019-05-09T18:36:48.454Z,99.90
2019-05-09T18:42:48.637Z,99.90
2019-05-09T18:45:20.412Z,99.90
2019-05-09T18:47:49.697Z,99.90
2019-05-09T18:50:19.569Z,99.90
2019-05-09T18:52:48.876Z,99.90
2019-05-09T18:55:19.094Z,99.90
2019-05-09T18:57:48.447Z,99.90
2019-05-09T19:00:20.675Z,99.90
2019-05-09T19:02:50.710Z,99.90
2019-05-09T19:05:20.180Z,99.90
2019-05-09T19:07:49.487Z,99.90
2019-05-09T19:10:18.878Z,99.90
2019-05-09T19:12:48.216Z,99.90
2019-05-09T19:15:20.749Z,99.90
2019-05-09T19:17:51.689Z,99.90
2019-05-09T19:20:22.627Z,99.90
2019-05-09T19:22:52.022Z,99.90
2019-05-09T19:25:21.388Z,99.90
2019-05-09T19:27:50.679Z,99.90
2019-05-09T19:30:20.259Z,99.90
2019-05-09T19:32:49.554Z,99.90
2019-05-09T19:35:18.872Z,99.90
2019-05-09T19:37:48.175Z,99.90
2019-05-09T19:40:20.294Z,99.90
2019-05-09T19:42:49.282Z,99.90
2019-05-09T19:45:19.328Z,99.90
2019-05-09T19:47:48.645Z,99.90
2019-05-09T19:54:18.069Z,99.90
2019-05-09T19:56:48.127Z,99.90
2019-05-09T19:59:17.411Z,99.90
2019-05-09T20:02:56.374Z,99.90
2019-05-09T20:05:25.671Z,99.90
2019-05-09T20:07:54.965Z,99.90
2019-05-09T20:18:04.234Z,99.90
2019-05-09T20:20:33.596Z,99.90
2019-05-09T20:23:02.915Z,99.90
2019-05-09T20:25:32.244Z,99.90
2019-05-09T20:28:01.589Z,99.90
2019-05-09T20:30:30.993Z,99.90
2019-05-09T20:33:00.340Z,99.90
2019-05-09T20:35:29.756Z,99.90
2019-05-09T20:37:59.240Z,99.90
2019-05-09T20:40:28.838Z,99.90
2019-05-09T20:43:51.590Z,99.90
2019-05-09T20:45:35.945Z,99.90
2019-05-09T20:48:06.398Z,99.90
2019-05-09T20:50:36.035Z,99.90
2019-05-09T20:53:09.767Z,99.90
2019-05-09T20:55:36.910Z,99.90
2019-05-09T20:58:06.407Z,99.90
2019-05-09T21:00:35.893Z,99.90
2019-05-09T21:03:08.066Z,99.90
2019-05-09T21:05:36.627Z,99.90
2019-05-09T21:08:06.180Z,99.90
2019-05-09T21:10:35.719Z,99.90
2019-05-09T21:13:05.761Z,99.90
2019-05-09T21:15:35.301Z,99.90
2019-05-09T21:18:05.134Z,99.90
2019-05-09T21:20:34.610Z,99.90
2019-05-09T21:23:05.653Z,99.90
2019-05-09T21:25:35.387Z,99.90
2019-05-09T21:28:05.001Z,99.90
2019-05-09T21:30:34.514Z,99.90
2019-05-09T21:33:04.097Z,99.90
2019-05-09T21:35:33.419Z,99.90
2019-05-09T21:38:02.803Z,99.90
2019-05-09T21:40:32.133Z,99.90
2019-05-09T21:43:01.483Z,99.90
2019-05-09T21:45:30.868Z,99.90
2019-05-09T21:48:00.183Z,99.90
2019-05-09T21:50:29.486Z,99.90
2019-05-09T21:52:58.870Z,99.90
2019-05-09T21:55:28.198Z,99.90
2019-05-09T21:57:57.489Z,99.90
2019-05-09T22:00:35.901Z,99.90
2019-05-09T22:03:06.995Z,99.90
2019-05-09T22:05:37.847Z,99.90
2019-05-09T22:08:07.229Z,99.90
2019-05-09T22:10:36.648Z,99.90
2019-05-09T22:13:05.946Z,99.90
2019-05-09T22:15:35.326Z,99.90
2019-05-09T22:18:04.908Z,99.90
2019-05-09T22:20:34.236Z,99.90
2019-05-09T22:23:06.408Z,99.90
2019-05-09T22:25:34.616Z,99.90
2019-05-09T22:28:03.989Z,99.90
2019-05-09T22:30:33.328Z,99.90
2019-05-09T22:33:02.672Z,99.90
2019-05-09T22:35:32.322Z,99.90
2019-05-09T22:38:01.931Z,99.90
2019-05-09T22:40:31.253Z,99.90
2019-05-09T22:43:00.554Z,99.90
2019-05-09T22:45:30.017Z,99.90
2019-05-09T22:47:59.422Z,99.90
2019-05-09T22:50:28.843Z,99.90
2019-05-09T22:52:58.251Z,99.90
2019-05-09T22:55:27.549Z,99.90
2019-05-09T22:57:56.852Z,99.90
2019-05-09T23:00:26.326Z,99.90
2019-05-09T23:02:55.944Z,99.90
2019-05-09T23:05:25.332Z,99.90
2019-05-09T23:07:54.640Z,99.90
2019-05-09T23:10:23.958Z,99.90
2019-05-09T23:12:53.346Z,99.90
2019-05-09T23:15:22.745Z,99.90
2019-05-09T23:17:52.073Z,99.90
2019-05-09T23:20:39.676Z,99.90
2019-05-09T23:23:26.741Z,99.90
2019-05-09T23:25:56.105Z,99.90
2019-05-09T23:28:27.082Z,99.90
2019-05-09T23:30:58.054Z,99.90
2019-05-09T23:33:29.056Z,99.90
2019-05-09T23:35:58.352Z,99.90
2019-05-09T23:38:27.648Z,99.90
2019-05-09T23:40:57.023Z,99.90
2019-05-09T23:43:26.331Z,99.90
2019-05-09T23:45:55.649Z,99.90
2019-05-09T23:48:25.022Z,99.90
2019-05-09T23:50:54.324Z,99.90
2019-05-09T23:53:31.969Z,99.90
2019-05-09T23:56:18.706Z,99.90
2019-05-09T23:59:05.745Z,99.90
